Time;durP1;ratioP1;P1;durP2;ratioP2;P2;SDS_P1;SDS_P2;PMS_P1;PMS_P2;Temp;Humidity;BMP_temperature;BMP_pressure;BME280_temperature;BME280_humidity;BME280_pressure;Samples;Min_cycle;Max_cycle;Signal;HPM_P1;HPM_P2
2021/07/29 00:02:20;;;;;;;4.57;2.20;;;17.30;99.90;;;;;;5040248;28;20566;-46
2021/07/29 00:04:47;;;;;;;2.07;1.97;;;17.30;99.90;;;;;;5030758;28;20241;-46
2021/07/29 00:07:15;;;;;;;2.63;2.43;;;17.20;99.90;;;;;;5043872;28;20585;-46
2021/07/29 00:09:45;;;;;;;4.13;2.00;;;17.20;99.90;;;;;;5050226;28;20195;-49
2021/07/29 00:12:12;;;;;;;3.60;2.23;;;17.20;99.90;;;;;;5043549;28;20227;-49
2021/07/29 00:14:38;;;;;;;3.10;2.40;;;17.10;99.90;;;;;;5040316;28;20206;-50
2021/07/29 00:17:16;;;;;;;2.90;2.27;;;17.10;99.90;;;;;;5053367;28;20223;-48
2021/07/29 00:19:42;;;;;;;3.23;2.30;;;17.10;99.90;;;;;;5043076;28;20187;-45
2021/07/29 00:22:08;;;;;;;3.93;1.97;;;17.00;99.90;;;;;;5030846;28;20199;-46
2021/07/29 00:24:36;;;;;;;2.60;2.20;;;17.00;99.90;;;;;;5040913;28;20187;-46
2021/07/29 00:27:03;;;;;;;4.00;2.23;;;17.00;99.90;;;;;;5044266;28;20223;-47
2021/07/29 00:29:30;;;;;;;3.97;2.30;;;17.00;99.90;;;;;;5039458;28;20203;-45
2021/07/29 00:31:56;;;;;;;3.43;2.67;;;17.00;99.90;;;;;;5052296;28;20226;-45
2021/07/29 00:34:23;;;;;;;2.77;2.30;;;17.00;99.90;;;;;;5040382;28;21891;-48
2021/07/29 00:36:50;;;;;;;2.60;2.10;;;17.00;99.90;;;;;;5028528;28;20223;-47
2021/07/29 00:39:16;;;;;;;3.20;2.07;;;16.90;99.90;;;;;;5040756;28;20202;-48
2021/07/29 00:41:44;;;;;;;4.17;2.50;;;16.90;99.90;;;;;;5042502;28;20192;-49
2021/07/29 00:44:11;;;;;;;2.97;1.90;;;16.90;99.90;;;;;;5042499;28;20206;-48
2021/07/29 00:46:37;;;;;;;4.57;2.50;;;16.80;99.90;;;;;;5047977;28;20223;-45
2021/07/29 00:49:05;;;;;;;4.90;2.67;;;16.80;99.90;;;;;;5048091;28;20203;-48
2021/07/29 00:51:32;;;;;;;3.67;3.07;;;16.80;99.90;;;;;;5027024;28;20867;-45
2021/07/29 00:54:00;;;;;;;3.27;2.43;;;16.70;99.90;;;;;;5042762;28;20573;-45
2021/07/29 00:56:28;;;;;;;2.77;2.20;;;16.70;99.90;;;;;;5038044;28;20222;-46
2021/07/29 00:58:56;;;;;;;4.30;2.50;;;16.70;99.90;;;;;;5041479;28;20196;-46
2021/07/29 01:01:23;;;;;;;5.37;2.70;;;16.70;99.90;;;;;;5037395;28;20676;-45
2021/07/29 01:03:50;;;;;;;4.00;2.40;;;16.70;99.90;;;;;;5026153;28;20623;-44
2021/07/29 01:06:17;;;;;;;5.83;2.37;;;16.70;99.90;;;;;;5032131;28;20215;-49
2021/07/29 01:08:59;;;;;;;3.87;2.30;;;16.70;99.90;;;;;;5034921;28;20210;-45
2021/07/29 01:11:26;;;;;;;2.70;2.37;;;16.60;99.90;;;;;;5039038;28;20195;-44
2021/07/29 01:13:52;;;;;;;5.23;2.40;;;16.60;99.90;;;;;;5038579;28;20205;-45
2021/07/29 01:16:20;;;;;;;3.70;2.60;;;16.60;99.90;;;;;;5042064;28;20709;-46
2021/07/29 01:18:47;;;;;;;3.10;2.03;;;16.60;99.90;;;;;;5041916;28;20203;-48
2021/07/29 01:21:15;;;;;;;4.07;2.53;;;16.50;99.90;;;;;;5031680;28;20199;-45
2021/07/29 01:23:42;;;;;;;4.57;2.40;;;16.50;99.90;;;;;;5027884;28;20203;-45
2021/07/29 01:26:08;;;;;;;5.53;2.73;;;16.50;99.90;;;;;;5039086;28;20700;-48
2021/07/29 01:28:35;;;;;;;5.00;2.60;;;16.50;99.90;;;;;;5040552;28;20202;-48
2021/07/29 01:31:02;;;;;;;3.80;2.20;;;16.50;99.90;;;;;;5043093;28;20710;-45
2021/07/29 01:33:28;;;;;;;3.63;2.60;;;16.50;99.90;;;;;;5038476;28;20196;-45
2021/07/29 01:35:55;;;;;;;3.43;2.07;;;16.60;99.90;;;;;;5024089;28;20216;-44
2021/07/29 01:38:23;;;;;;;3.03;2.40;;;16.60;99.90;;;;;;5021060;28;20213;-49
2021/07/29 01:40:49;;;;;;;3.40;2.10;;;16.60;99.90;;;;;;5042236;28;20188;-47
2021/07/29 01:43:16;;;;;;;2.40;2.20;;;16.70;99.90;;;;;;5044188;28;20209;-48
2021/07/29 01:45:44;;;;;;;2.63;2.40;;;16.70;99.90;;;;;;5041888;28;20218;-47
2021/07/29 01:48:11;;;;;;;4.43;2.00;;;16.70;99.90;;;;;;5032071;28;20195;-45
2021/07/29 01:50:37;;;;;;;4.50;2.20;;;16.80;99.90;;;;;;5041820;28;20198;-45
2021/07/29 01:53:04;;;;;;;2.60;2.03;;;16.80;99.90;;;;;;5043604;28;20223;-46
2021/07/29 01:55:32;;;;;;;2.27;1.90;;;16.90;99.90;;;;;;5025105;28;20211;-45
2021/07/29 01:57:59;;;;;;;4.53;1.93;;;16.90;99.90;;;;;;5042757;28;20199;-44
2021/07/29 02:00:25;;;;;;;3.27;2.20;;;16.90;99.90;;;;;;5039552;28;20191;-47
2021/07/29 02:02:52;;;;;;;4.37;1.97;;;16.90;99.90;;;;;;5033177;28;20196;-47
2021/07/29 02:05:18;;;;;;;4.53;2.23;;;17.00;99.90;;;;;;5039497;28;20203;-47
2021/07/29 02:07:45;;;;;;;3.27;2.00;;;16.90;99.90;;;;;;5040329;28;20207;-45
2021/07/29 02:10:12;;;;;;;2.83;1.90;;;17.00;99.90;;;;;;5034380;28;20203;-49
2021/07/29 02:12:40;;;;;;;4.67;2.27;;;17.00;99.90;;;;;;5033869;28;20211;-46
2021/07/29 02:15:08;;;;;;;3.30;2.23;;;17.00;99.90;;;;;;5049094;28;20204;-49
2021/07/29 02:17:35;;;;;;;2.80;1.87;;;17.00;99.90;;;;;;5039111;28;20191;-45
2021/07/29 02:20:01;;;;;;;2.97;1.90;;;17.00;99.90;;;;;;5042385;28;20657;-45
2021/07/29 02:22:28;;;;;;;3.37;2.00;;;17.00;99.90;;;;;;5038013;28;20206;-45
2021/07/29 02:24:55;;;;;;;2.47;2.27;;;17.00;99.90;;;;;;5041922;28;20199;-47
2021/07/29 02:27:23;;;;;;;2.70;1.90;;;17.00;99.90;;;;;;5024115;28;20588;-46
2021/07/29 02:29:51;;;;;;;3.00;2.20;;;17.00;99.90;;;;;;5042430;28;20643;-46
2021/07/29 02:32:18;;;;;;;3.43;2.03;;;17.00;99.90;;;;;;5040549;28;20211;-47
2021/07/29 02:34:45;;;;;;;2.53;2.00;;;17.10;99.90;;;;;;5041275;28;20885;-46
2021/07/29 02:37:11;;;;;;;7.03;2.30;;;17.10;99.90;;;;;;5041584;28;20217;-48
2021/07/29 02:39:40;;;;;;;4.03;1.90;;;17.10;99.90;;;;;;5031589;28;20211;-46
2021/07/29 02:42:07;;;;;;;4.63;2.30;;;17.10;99.90;;;;;;5038915;28;20198;-45
2021/07/29 02:44:34;;;;;;;3.17;2.00;;;17.20;99.90;;;;;;5029373;28;20215;-45
2021/07/29 02:47:03;;;;;;;4.40;2.30;;;17.20;99.90;;;;;;5053290;28;20229;-45
2021/07/29 02:49:30;;;;;;;4.67;2.17;;;17.20;99.90;;;;;;5043669;28;20219;-45
2021/07/29 02:51:57;;;;;;;4.67;2.17;;;17.20;99.90;;;;;;5042038;28;20230;-45
2021/07/29 02:54:23;;;;;;;3.00;2.10;;;17.30;99.90;;;;;;5037458;28;20206;-48
2021/07/29 02:56:50;;;;;;;2.37;2.17;;;17.30;99.90;;;;;;5041653;28;20215;-47
2021/07/29 02:59:17;;;;;;;2.77;2.27;;;17.30;99.90;;;;;;5025544;28;20211;-46
2021/07/29 03:01:44;;;;;;;3.43;2.27;;;17.30;99.90;;;;;;5039845;28;20209;-48
2021/07/29 03:04:12;;;;;;;3.67;2.10;;;17.30;99.90;;;;;;5041333;28;20195;-46
2021/07/29 03:06:38;;;;;;;2.40;2.17;;;17.40;99.90;;;;;;5038910;28;20888;-46
2021/07/29 03:09:05;;;;;;;7.63;2.37;;;17.30;99.90;;;;;;5041071;28;20199;-47
2021/07/29 03:11:32;;;;;;;4.03;2.27;;;17.30;99.90;;;;;;5038225;28;20199;-45
2021/07/29 03:14:00;;;;;;;2.10;2.00;;;17.30;99.90;;;;;;5041723;28;20675;-45
2021/07/29 03:16:27;;;;;;;2.20;2.00;;;17.30;99.90;;;;;;5024431;28;20544;-45
2021/07/29 03:18:54;;;;;;;3.83;2.40;;;17.40;99.90;;;;;;5043197;28;20262;-46
2021/07/29 03:21:22;;;;;;;3.60;3.23;;;17.30;99.90;;;;;;5042467;28;20215;-47
2021/07/29 03:23:48;;;;;;;3.43;2.03;;;17.40;99.90;;;;;;5040949;28;20202;-46
2021/07/29 03:26:15;;;;;;;3.60;3.30;;;17.40;99.90;;;;;;5035922;28;20227;-46
2021/07/29 03:28:42;;;;;;;4.47;2.43;;;17.40;99.90;;;;;;5039994;28;20187;-47
2021/07/29 03:31:08;;;;;;;2.60;2.30;;;17.40;99.90;;;;;;5026998;28;20207;-46
2021/07/29 03:33:37;;;;;;;7.43;2.33;;;17.40;99.90;;;;;;5035273;28;20204;-45
2021/07/29 03:36:05;;;;;;;5.50;2.37;;;17.40;99.90;;;;;;5042298;28;20255;-47
2021/07/29 03:38:33;;;;;;;2.77;2.53;;;17.40;99.90;;;;;;5038984;28;20197;-49
2021/07/29 03:41:00;;;;;;;3.20;3.00;;;17.40;99.90;;;;;;5053835;28;20211;-45
2021/07/29 03:43:27;;;;;;;5.43;2.47;;;17.30;99.90;;;;;;5043405;28;20194;-51
2021/07/29 03:45:54;;;;;;;3.60;3.30;;;17.30;99.90;;;;;;5030684;28;20226;-47
2021/07/29 03:48:20;;;;;;;3.50;2.97;;;17.30;99.90;;;;;;5041733;28;20549;-44
2021/07/29 03:50:47;;;;;;;4.80;2.83;;;17.30;99.90;;;;;;5044159;28;20196;-48
2021/07/29 03:53:14;;;;;;;4.97;2.47;;;17.30;99.90;;;;;;5041876;28;20588;-47
2021/07/29 03:55:44;;;;;;;4.07;2.13;;;17.30;99.90;;;;;;5040088;28;20272;-45
2021/07/29 03:58:11;;;;;;;3.47;2.40;;;17.30;99.90;;;;;;5064366;28;20248;-46
2021/07/29 04:00:37;;;;;;;2.63;2.43;;;17.20;99.90;;;;;;5033771;28;20211;-45
2021/07/29 04:03:06;;;;;;;6.40;2.77;;;17.20;99.90;;;;;;5045989;28;20207;-46
2021/07/29 04:05:32;;;;;;;4.07;2.77;;;17.20;99.90;;;;;;5042724;28;20223;-45
2021/07/29 04:07:59;;;;;;;3.50;2.73;;;17.20;99.90;;;;;;5055495;28;20210;-47
2021/07/29 04:10:26;;;;;;;3.63;3.13;;;17.20;99.90;;;;;;5061263;28;20191;-47
2021/07/29 04:12:54;;;;;;;4.20;3.80;;;17.10;99.90;;;;;;5059148;28;20691;-45
2021/07/29 04:15:20;;;;;;;6.93;2.97;;;17.10;99.90;;;;;;5042207;28;20604;-46
2021/07/29 04:17:47;;;;;;;4.00;3.60;;;17.10;99.90;;;;;;5030469;28;20672;-48
2021/07/29 04:20:14;;;;;;;3.17;2.70;;;17.00;99.90;;;;;;5041897;28;20199;-46
2021/07/29 04:22:40;;;;;;;3.67;2.93;;;17.00;99.90;;;;;;5039629;28;20707;-45
2021/07/29 04:25:08;;;;;;;3.30;2.93;;;17.00;99.90;;;;;;5035238;28;20205;-51
2021/07/29 04:27:35;;;;;;;3.97;3.30;;;17.00;99.90;;;;;;5039902;28;20565;-47
2021/07/29 04:30:05;;;;;;;4.17;2.67;;;17.00;99.90;;;;;;5056788;28;20203;-47
2021/07/29 04:32:36;;;;;;;5.03;3.53;;;16.90;99.90;;;;;;5026049;28;20215;-47
2021/07/29 04:35:02;;;;;;;2.97;2.70;;;16.90;99.90;;;;;;5041063;28;20208;-46
2021/07/29 04:37:29;;;;;;;3.37;2.97;;;16.90;99.90;;;;;;5035676;28;20994;-45
2021/07/29 04:39:56;;;;;;;5.47;3.23;;;16.90;99.90;;;;;;5040709;28;20680;-44
2021/07/29 04:42:22;;;;;;;3.83;3.20;;;16.90;99.90;;;;;;5035001;28;20187;-48
2021/07/29 04:44:49;;;;;;;4.70;3.90;;;16.90;99.90;;;;;;5045380;28;20199;-46
2021/07/29 04:47:17;;;;;;;4.20;3.80;;;17.00;99.90;;;;;;5039253;28;20211;-45
2021/07/29 04:49:44;;;;;;;3.33;2.57;;;17.00;99.90;;;;;;5028060;28;20259;-44
2021/07/29 04:52:10;;;;;;;3.17;2.20;;;17.00;99.90;;;;;;5036887;28;20912;-46
2021/07/29 04:54:37;;;;;;;3.27;2.40;;;17.00;99.90;;;;;;5047701;28;20719;-46
2021/07/29 04:57:04;;;;;;;5.47;2.77;;;17.00;99.90;;;;;;5050353;28;20230;-48
2021/07/29 04:59:31;;;;;;;3.70;3.40;;;16.90;99.90;;;;;;5062916;28;20205;-45
2021/07/29 05:01:57;;;;;;;6.90;3.60;;;16.90;99.90;;;;;;5043653;28;20271;-47
2021/07/29 05:04:25;;;;;;;3.13;2.93;;;16.90;99.90;;;;;;5029989;28;20214;-48
2021/07/29 05:06:52;;;;;;;3.83;3.03;;;17.00;99.90;;;;;;5043399;28;20199;-51
2021/07/29 05:09:19;;;;;;;3.43;3.23;;;17.00;99.90;;;;;;5043031;28;20199;-48
2021/07/29 05:11:45;;;;;;;6.23;3.43;;;17.00;99.90;;;;;;5035898;28;20188;-45
2021/07/29 05:14:12;;;;;;;4.17;2.90;;;17.00;99.90;;;;;;5036182;28;20640;-45
2021/07/29 05:16:38;;;;;;;3.67;2.30;;;17.00;99.90;;;;;;5029530;28;20212;-45
2021/07/29 05:19:05;;;;;;;3.67;2.40;;;17.00;99.90;;;;;;5020284;28;20203;-44
2021/07/29 05:21:34;;;;;;;4.37;2.90;;;17.10;99.90;;;;;;5039105;28;20207;-47
2021/07/29 05:24:04;;;;;;;4.50;3.70;;;17.10;99.90;;;;;;5043055;28;20295;-46
2021/07/29 05:26:31;;;;;;;5.27;3.00;;;17.10;99.90;;;;;;5057285;28;20226;-48
2021/07/29 05:28:57;;;;;;;4.77;2.93;;;17.10;99.90;;;;;;5049475;28;20210;-45
2021/07/29 05:31:24;;;;;;;6.47;2.87;;;17.10;99.90;;;;;;5057708;28;20279;-47
2021/07/29 05:33:50;;;;;;;4.03;2.27;;;17.20;99.90;;;;;;5022569;28;20222;-46
2021/07/29 05:36:17;;;;;;;5.50;2.73;;;17.20;99.90;;;;;;5042477;28;20222;-45
2021/07/29 05:38:45;;;;;;;3.63;2.50;;;17.20;99.90;;;;;;5035254;28;20289;-46
2021/07/29 05:41:12;;;;;;;6.27;2.70;;;17.20;99.90;;;;;;5043623;28;20568;-46
2021/07/29 05:43:40;;;;;;;3.90;2.90;;;17.30;99.90;;;;;;5032665;28;20282;-46
2021/07/29 05:46:10;;;;;;;3.13;2.80;;;17.30;99.90;;;;;;5043593;28;20315;-47
2021/07/29 05:48:37;;;;;;;2.40;2.20;;;17.30;99.90;;;;;;5035440;28;20314;-49
2021/07/29 05:51:04;;;;;;;6.90;2.90;;;17.40;99.90;;;;;;5029030;28;20696;-44
2021/07/29 05:53:31;;;;;;;4.77;2.13;;;17.40;99.90;;;;;;5039084;28;20226;-47
2021/07/29 05:56:00;;;;;;;5.57;2.63;;;17.50;99.90;;;;;;5048844;28;23016;-45
2021/07/29 05:58:27;;;;;;;5.07;2.30;;;17.50;99.90;;;;;;5055094;28;20196;-48
2021/07/29 06:00:54;;;;;;;5.70;3.57;;;17.50;99.90;;;;;;5037108;28;20319;-45
2021/07/29 06:03:20;;;;;;;3.07;2.77;;;17.50;99.90;;;;;;5031999;28;20195;-46
2021/07/29 06:05:47;;;;;;;8.03;3.53;;;17.50;99.90;;;;;;5021463;28;20231;-47
2021/07/29 06:08:14;;;;;;;7.73;3.37;;;17.50;99.90;;;;;;5041140;28;20613;-44
2021/07/29 06:10:40;;;;;;;3.40;3.10;;;17.60;99.90;;;;;;5028334;28;20199;-48
2021/07/29 06:13:08;;;;;;;6.50;3.20;;;17.70;99.90;;;;;;5046521;28;20575;-48
2021/07/29 06:15:35;;;;;;;3.53;2.60;;;17.70;99.90;;;;;;5030419;28;20766;-45
2021/07/29 06:18:02;;;;;;;3.17;2.63;;;17.80;99.90;;;;;;5050366;28;20211;-45
2021/07/29 06:20:30;;;;;;;4.53;2.87;;;17.80;99.90;;;;;;5017094;28;20223;-52
2021/07/29 06:22:57;;;;;;;4.97;2.83;;;17.80;99.90;;;;;;5032432;28;20929;-45
2021/07/29 06:25:23;;;;;;;7.77;3.10;;;17.80;99.90;;;;;;5042502;28;20576;-47
2021/07/29 06:27:50;;;;;;;4.37;3.30;;;17.80;99.90;;;;;;5018330;28;21058;-47
2021/07/29 06:30:18;;;;;;;4.43;3.03;;;17.90;99.90;;;;;;5034963;28;20204;-49
2021/07/29 06:32:45;;;;;;;6.47;3.10;;;17.90;99.90;;;;;;5038398;28;21005;-45
2021/07/29 06:35:12;;;;;;;5.87;2.83;;;17.80;99.90;;;;;;5051358;28;20210;-46
2021/07/29 06:37:39;;;;;;;3.43;2.10;;;17.90;99.90;;;;;;5029651;28;20203;-47
2021/07/29 06:40:07;;;;;;;4.43;2.90;;;17.90;99.90;;;;;;5041250;28;20230;-45
2021/07/29 06:42:34;;;;;;;5.93;3.00;;;17.90;99.90;;;;;;5035164;28;20196;-46
2021/07/29 06:45:01;;;;;;;4.73;2.50;;;17.90;99.90;;;;;;5056837;28;20188;-52
2021/07/29 06:47:31;;;;;;;4.47;1.73;;;18.00;99.90;;;;;;5039561;28;20580;-46
2021/07/29 06:49:58;;;;;;;2.83;1.90;;;17.90;99.90;;;;;;5046942;28;20210;-47
2021/07/29 06:52:26;;;;;;;6.77;2.73;;;17.90;99.90;;;;;;5022934;28;20214;-46
2021/07/29 06:54:52;;;;;;;5.23;1.97;;;17.90;99.90;;;;;;5041509;28;20249;-46
2021/07/29 06:57:19;;;;;;;2.97;2.47;;;17.90;99.90;;;;;;5044392;28;20236;-47
2021/07/29 06:59:46;;;;;;;4.77;2.07;;;18.00;99.90;;;;;;5056553;28;20201;-46
2021/07/29 07:02:12;;;;;;;6.27;2.20;;;18.10;99.90;;;;;;5062895;28;20581;-48
2021/07/29 07:04:41;;;;;;;3.93;2.23;;;18.10;99.90;;;;;;5055826;28;20204;-46
2021/07/29 07:07:14;;;;;;;7.93;2.93;;;18.20;99.90;;;;;;5030361;28;20226;-48
2021/07/29 07:09:41;;;;;;;3.17;2.60;;;18.20;99.90;;;;;;5036763;28;20245;-50
2021/07/29 07:12:08;;;;;;;7.20;2.90;;;18.20;99.90;;;;;;5030917;28;20217;-46
2021/07/29 07:14:35;;;;;;;7.63;2.27;;;18.30;99.90;;;;;;5061486;28;20225;-45
2021/07/29 07:17:03;;;;;;;3.50;2.63;;;18.20;99.90;;;;;;5053742;28;20203;-46
2021/07/29 07:19:30;;;;;;;5.93;2.57;;;18.30;99.90;;;;;;5045562;28;20203;-47
2021/07/29 07:21:58;;;;;;;6.93;2.07;;;18.30;99.90;;;;;;5037896;28;21138;-46
2021/07/29 07:24:24;;;;;;;8.53;2.27;;;18.30;99.90;;;;;;5035438;28;20198;-45
2021/07/29 07:26:51;;;;;;;7.63;2.90;;;18.30;99.90;;;;;;5034527;28;20216;-48
2021/07/29 07:29:18;;;;;;;7.07;2.50;;;18.40;99.90;;;;;;5048653;28;20199;-46
2021/07/29 07:31:44;;;;;;;5.73;2.03;;;18.60;99.90;;;;;;5045663;28;20203;-49
2021/07/29 07:34:11;;;;;;;3.13;2.67;;;18.70;99.90;;;;;;5033653;28;20253;-46
2021/07/29 07:36:38;;;;;;;6.17;2.00;;;18.80;99.90;;;;;;5044332;28;20223;-50
2021/07/29 07:39:07;;;;;;;5.73;2.13;;;18.80;99.90;;;;;;5026311;28;20227;-48
2021/07/29 07:41:34;;;;;;;4.00;1.60;;;18.90;99.90;;;;;;5038382;28;20700;-49
2021/07/29 07:44:00;;;;;;;7.60;2.03;;;18.90;99.90;;;;;;5052524;28;20190;-46
2021/07/29 07:46:27;;;;;;;4.80;1.97;;;18.90;99.90;;;;;;5045750;28;20227;-49
2021/07/29 07:48:54;;;;;;;5.43;2.00;;;18.90;99.90;;;;;;5042257;28;20210;-46
2021/07/29 07:51:20;;;;;;;5.37;2.23;;;18.80;99.90;;;;;;5037300;28;20540;-49
2021/07/29 07:53:47;;;;;;;4.20;1.90;;;18.80;99.90;;;;;;5027967;28;20219;-45
2021/07/29 07:56:15;;;;;;;3.63;1.80;;;18.80;99.90;;;;;;5047680;28;20231;-45
2021/07/29 07:58:42;;;;;;;4.73;1.53;;;18.80;99.90;;;;;;5029007;28;20209;-46
2021/07/29 08:01:08;;;;;;;3.13;1.10;;;18.70;99.90;;;;;;5047927;28;20225;-48
2021/07/29 08:03:35;;;;;;;3.57;1.30;;;18.70;99.90;;;;;;5036987;28;20211;-46
2021/07/29 08:06:02;;;;;;;1.60;1.40;;;18.60;99.90;;;;;;5042567;28;20226;-48
2021/07/29 08:08:29;;;;;;;4.17;1.93;;;18.50;99.90;;;;;;5030811;28;20742;-52
2021/07/29 08:10:56;;;;;;;3.37;1.37;;;18.60;99.90;;;;;;5034751;28;20200;-45
2021/07/29 08:13:24;;;;;;;3.80;1.60;;;18.70;99.90;;;;;;5041300;28;20230;-52
2021/07/29 08:15:51;;;;;;;5.63;1.97;;;18.90;99.90;;;;;;5042442;28;20218;-47
2021/07/29 08:18:17;;;;;;;4.80;2.30;;;19.10;99.90;;;;;;5047018;28;20219;-51
2021/07/29 08:20:44;;;;;;;6.77;1.53;;;19.20;99.90;;;;;;5034078;28;20871;-48
2021/07/29 08:23:11;;;;;;;5.70;1.87;;;19.20;99.90;;;;;;5026723;28;20204;-49
2021/07/29 08:25:38;;;;;;;7.73;1.37;;;19.30;99.90;;;;;;5032722;28;20215;-45
2021/07/29 08:28:05;;;;;;;1.87;1.13;;;19.40;99.50;;;;;;5037464;28;20203;-45
2021/07/29 08:30:34;;;;;;;2.83;1.50;;;19.50;99.30;;;;;;5032364;28;20247;-48
2021/07/29 08:33:08;;;;;;;5.37;2.00;;;19.70;99.00;;;;;;5041823;28;20664;-45
2021/07/29 08:35:36;;;;;;;4.93;1.57;;;19.90;98.60;;;;;;5042776;28;20219;-49
2021/07/29 08:38:02;;;;;;;10.70;1.93;;;20.00;98.60;;;;;;5024623;28;20203;-43
2021/07/29 08:40:30;;;;;;;3.00;1.83;;;20.00;97.80;;;;;;5035641;28;20208;-48
2021/07/29 08:42:57;;;;;;;2.87;1.43;;;20.10;97.90;;;;;;5047137;28;20261;-45
2021/07/29 08:45:24;;;;;;;4.53;1.10;;;20.20;97.60;;;;;;5033495;28;20220;-49
2021/07/29 08:47:56;;;;;;;4.37;1.57;;;20.00;96.90;;;;;;5042538;28;20218;-44
2021/07/29 08:50:22;;;;;;;2.43;1.00;;;19.80;96.40;;;;;;5055793;28;20688;-46
2021/07/29 08:52:50;;;;;;;2.13;1.13;;;19.60;95.70;;;;;;5022911;28;20218;-44
2021/07/29 08:55:17;;;;;;;7.37;2.10;;;19.50;95.60;;;;;;5039903;28;20219;-48
2021/07/29 08:57:44;;;;;;;2.90;1.20;;;19.50;95.80;;;;;;5033687;28;20200;-46
2021/07/29 09:00:12;;;;;;;3.07;1.33;;;19.40;95.60;;;;;;5031517;28;20207;-50
2021/07/29 09:02:39;;;;;;;3.83;1.50;;;19.50;95.60;;;;;;5032090;28;20201;-44
2021/07/29 09:05:18;;;;;;;1.70;1.50;;;19.50;95.70;;;;;;5039843;28;20704;-49
2021/07/29 09:07:46;;;;;;;2.07;1.30;;;19.60;95.80;;;;;;5030941;28;20235;-44
2021/07/29 09:10:24;;;;;;;11.70;2.10;;;19.60;95.60;;;;;;5023831;28;20218;-47
2021/07/29 09:13:08;;;;;;;6.37;2.40;;;19.60;95.50;;;;;;5053556;28;20209;-44
2021/07/29 09:15:35;;;;;;;4.57;1.53;;;19.60;94.20;;;;;;5038382;28;20230;-46
2021/07/29 09:18:02;;;;;;;4.23;1.13;;;19.60;95.00;;;;;;5035193;28;20280;-47
2021/07/29 09:20:30;;;;;;;4.80;1.47;;;19.70;94.50;;;;;;5047297;28;20202;-44
2021/07/29 09:22:57;;;;;;;4.70;1.60;;;19.80;94.00;;;;;;5040601;28;20215;-47
2021/07/29 09:25:26;;;;;;;4.13;1.30;;;19.80;93.90;;;;;;5025081;28;20211;-49
2021/07/29 09:27:54;;;;;;;3.13;1.50;;;19.90;93.30;;;;;;5042159;28;20293;-45
2021/07/29 09:30:23;;;;;;;2.10;1.47;;;19.90;92.90;;;;;;5060787;28;20202;-51
2021/07/29 09:32:59;;;;;;;4.13;1.37;;;20.00;93.10;;;;;;5043953;28;20282;-46
2021/07/29 09:35:39;;;;;;;4.80;2.27;;;20.00;92.70;;;;;;5025129;28;20297;-44
2021/07/29 09:38:09;;;;;;;2.53;1.30;;;20.00;92.10;;;;;;5026255;28;20288;-51
2021/07/29 09:40:47;;;;;;;4.33;1.33;;;20.00;92.30;;;;;;5024110;28;20191;-48
2021/07/29 09:43:15;;;;;;;2.93;1.13;;;19.90;91.40;;;;;;5023744;28;20184;-50
2021/07/29 09:45:44;;;;;;;4.13;0.93;;;19.80;91.80;;;;;;5045765;28;20222;-45
2021/07/29 09:48:11;;;;;;;4.33;1.10;;;19.70;91.70;;;;;;5027979;28;20707;-49
2021/07/29 09:50:41;;;;;;;3.37;1.40;;;19.60;91.60;;;;;;5024719;28;20196;-45
2021/07/29 09:53:08;;;;;;;3.23;1.73;;;19.70;91.70;;;;;;5032295;28;20708;-50
2021/07/29 09:55:35;;;;;;;3.80;1.50;;;19.80;91.80;;;;;;5030115;28;20211;-48
2021/07/29 09:58:02;;;;;;;4.70;1.40;;;19.80;91.80;;;;;;5029599;28;20200;-46
2021/07/29 10:00:28;;;;;;;3.63;0.97;;;19.70;91.40;;;;;;5026401;28;20206;-45
2021/07/29 10:02:56;;;;;;;3.00;0.97;;;19.70;91.10;;;;;;5038214;28;20184;-46
2021/07/29 10:05:29;;;;;;;2.63;1.10;;;19.70;91.30;;;;;;5023428;28;20664;-48
2021/07/29 10:08:00;;;;;;;6.47;1.50;;;19.70;91.20;;;;;;5037833;28;20700;-47
2021/07/29 10:10:30;;;;;;;4.17;2.00;;;19.80;90.90;;;;;;5020887;28;21829;-45
2021/07/29 10:12:57;;;;;;;4.10;1.43;;;19.80;91.50;;;;;;5034809;28;20195;-46
2021/07/29 10:15:41;;;;;;;6.63;1.40;;;19.80;91.30;;;;;;5027275;28;20211;-50
2021/07/29 10:18:09;;;;;;;2.70;0.97;;;19.70;91.20;;;;;;5029884;28;20195;-49
2021/07/29 10:20:36;;;;;;;3.50;1.70;;;19.70;91.20;;;;;;5030925;28;21322;-45
2021/07/29 10:23:31;;;;;;;4.73;1.80;;;19.80;91.60;;;;;;5043153;28;20222;-44
2021/07/29 10:26:07;;;;;;;2.57;1.20;;;20.00;91.70;;;;;;5026569;28;20223;-44
2021/07/29 10:28:41;;;;;;;4.50;1.60;;;20.20;91.70;;;;;;5030285;28;20184;-44
2021/07/29 10:31:13;;;;;;;6.17;1.77;;;20.30;91.20;;;;;;5028050;28;20290;-49
2021/07/29 10:33:41;;;;;;;1.57;0.83;;;20.40;91.50;;;;;;5032335;28;20300;-44
2021/07/29 10:36:09;;;;;;;3.73;1.33;;;20.40;91.10;;;;;;5034787;28;20298;-47
2021/07/29 10:38:51;;;;;;;2.50;0.90;;;20.50;90.80;;;;;;5034147;28;20195;-49
2021/07/29 10:41:44;;;;;;;3.37;1.20;;;20.50;90.50;;;;;;5015432;28;20218;-48
2021/07/29 10:44:56;;;;;;;3.53;1.00;;;20.40;90.60;;;;;;5029081;28;20211;-48
2021/07/29 10:47:39;;;;;;;2.13;1.17;;;20.30;90.30;;;;;;5037380;28;20223;-43
2021/07/29 10:50:10;;;;;;;2.47;1.20;;;20.40;90.40;;;;;;5030899;28;20220;-43
2021/07/29 10:52:38;;;;;;;4.00;1.20;;;20.60;90.50;;;;;;5045644;28;20572;-49
2021/07/29 10:55:08;;;;;;;5.37;1.00;;;20.60;90.00;;;;;;5033765;28;20223;-41
2021/07/29 10:57:34;;;;;;;2.33;1.10;;;20.40;88.90;;;;;;5024568;28;20231;-47
2021/07/29 11:00:01;;;;;;;3.90;1.40;;;20.40;88.80;;;;;;5041559;28;20983;-41
2021/07/29 11:02:41;;;;;;;2.03;1.43;;;20.40;89.50;;;;;;5034018;28;20192;-49
2021/07/29 11:05:09;;;;;;;2.80;1.40;;;20.50;90.20;;;;;;5036762;28;20196;-45
2021/07/29 11:07:41;;;;;;;2.77;1.20;;;20.70;89.10;;;;;;5039998;28;20191;-45
2021/07/29 11:10:10;;;;;;;3.57;1.50;;;20.80;88.70;;;;;;5042212;28;20195;-49
2021/07/29 11:12:39;;;;;;;6.87;1.17;;;21.00;88.50;;;;;;5030202;28;20210;-48
2021/07/29 11:15:08;;;;;;;2.63;1.40;;;21.00;87.30;;;;;;5040340;28;20226;-46
2021/07/29 11:17:36;;;;;;;3.03;1.37;;;20.80;88.10;;;;;;5045409;28;20223;-47
2021/07/29 11:20:05;;;;;;;4.33;1.10;;;20.80;88.50;;;;;;5047275;28;20253;-44
2021/07/29 11:22:42;;;;;;;4.87;1.50;;;20.80;89.00;;;;;;5044637;28;20195;-48
2021/07/29 11:25:09;;;;;;;3.63;1.00;;;20.80;87.50;;;;;;5038098;28;21608;-44
2021/07/29 11:27:36;;;;;;;3.50;1.70;;;20.70;86.90;;;;;;5026067;28;20618;-47
2021/07/29 11:30:04;;;;;;;3.93;1.60;;;20.60;89.10;;;;;;5038143;28;20191;-48
2021/07/29 11:32:39;;;;;;;3.10;1.40;;;20.60;89.00;;;;;;5040994;28;20195;-46
2021/07/29 11:35:08;;;;;;;2.50;1.80;;;20.60;90.00;;;;;;5027684;28;20233;-45
2021/07/29 11:37:37;;;;;;;4.47;1.40;;;20.80;90.00;;;;;;5034623;28;20985;-44
2021/07/29 11:40:05;;;;;;;4.70;1.90;;;20.70;90.00;;;;;;5039369;28;20199;-46
2021/07/29 11:42:36;;;;;;;4.47;1.47;;;20.70;90.40;;;;;;5022919;28;20204;-48
2021/07/29 11:45:04;;;;;;;4.10;1.40;;;20.90;90.20;;;;;;5032480;28;20203;-45
2021/07/29 11:47:41;;;;;;;4.73;1.70;;;20.80;90.10;;;;;;5044224;28;20203;-47
2021/07/29 11:50:09;;;;;;;3.87;1.80;;;21.00;90.00;;;;;;5036262;28;20210;-47
2021/07/29 11:52:49;;;;;;;3.70;1.57;;;21.10;89.20;;;;;;5038838;28;20206;-49
2021/07/29 11:55:16;;;;;;;3.87;1.20;;;21.10;88.80;;;;;;5026424;28;20223;-46
2021/07/29 11:57:44;;;;;;;6.43;1.53;;;21.10;86.90;;;;;;5044412;28;20202;-48
2021/07/29 12:00:14;;;;;;;2.93;1.30;;;21.10;87.70;;;;;;5024423;28;20218;-49
2021/07/29 12:02:43;;;;;;;4.17;1.60;;;21.30;88.60;;;;;;5043381;28;20561;-45
2021/07/29 12:05:11;;;;;;;9.43;2.20;;;21.40;86.90;;;;;;5034000;28;20196;-48
2021/07/29 12:07:42;;;;;;;6.47;1.83;;;21.30;87.60;;;;;;5039279;28;20198;-45
2021/07/29 12:10:10;;;;;;;3.90;1.47;;;21.30;86.30;;;;;;5023813;28;20245;-48
2021/07/29 12:12:37;;;;;;;5.87;1.30;;;21.50;85.20;;;;;;5034264;28;20211;-48
2021/07/29 12:15:05;;;;;;;3.27;1.40;;;21.50;84.30;;;;;;5027045;28;20222;-48
2021/07/29 12:17:32;;;;;;;5.67;1.47;;;21.60;82.90;;;;;;5033082;28;20223;-48
2021/07/29 12:20:03;;;;;;;3.53;1.07;;;21.60;83.10;;;;;;5042168;28;20191;-44
2021/07/29 12:22:30;;;;;;;5.53;1.40;;;21.70;82.00;;;;;;5040705;28;20289;-49
2021/07/29 12:24:59;;;;;;;3.77;1.40;;;21.60;81.50;;;;;;5033925;28;20295;-47
2021/07/29 12:27:26;;;;;;;2.93;0.97;;;21.80;83.10;;;;;;5030389;28;20227;-45
2021/07/29 12:29:53;;;;;;;2.57;1.23;;;21.80;80.70;;;;;;5027151;28;20196;-45
2021/07/29 12:32:25;;;;;;;2.33;1.50;;;21.60;80.70;;;;;;5041483;28;20204;-48
2021/07/29 12:34:53;;;;;;;4.37;2.00;;;21.50;81.10;;;;;;5036976;28;20218;-50
2021/07/29 12:37:32;;;;;;;3.07;1.20;;;21.50;82.20;;;;;;5034083;28;20212;-51
2021/07/29 12:39:59;;;;;;;3.97;1.30;;;21.50;81.40;;;;;;5026983;28;20917;-50
2021/07/29 12:42:30;;;;;;;2.10;1.23;;;21.20;82.70;;;;;;5029484;28;20348;-50
2021/07/29 12:44:58;;;;;;;5.30;1.90;;;21.20;83.10;;;;;;5024196;28;20203;-45
2021/07/29 12:47:25;;;;;;;4.50;1.60;;;21.20;83.20;;;;;;5035606;28;20714;-49
2021/07/29 12:49:52;;;;;;;8.87;1.70;;;21.50;83.70;;;;;;5037261;28;20180;-44
2021/07/29 12:52:20;;;;;;;4.20;1.17;;;21.90;79.10;;;;;;5039383;28;20195;-46
2021/07/29 12:55:06;;;;;;;5.13;1.40;;;22.00;78.60;;;;;;5039946;28;20867;-49